createdAt,value
2023-02-15T00:01:52.072Z,12.17
2023-02-15T00:04:21.047Z,12.87
2023-02-15T00:06:48.364Z,11.73
2023-02-15T00:09:15.503Z,12.00
2023-02-15T00:11:50.949Z,12.00
2023-02-15T00:14:20.572Z,12.60
2023-02-15T00:16:48.168Z,12.67
2023-02-15T00:19:16.800Z,12.03
2023-02-15T00:21:44.204Z,11.80
2023-02-15T00:24:12.792Z,12.30
2023-02-15T00:26:40.802Z,12.73
2023-02-15T00:29:08.032Z,12.47
2023-02-15T00:31:35.698Z,11.60
2023-02-15T00:34:04.115Z,11.87
2023-02-15T00:36:31.496Z,12.27
2023-02-15T00:38:58.854Z,12.60
2023-02-15T00:41:26.269Z,11.70
2023-02-15T00:43:53.408Z,12.40
2023-02-15T00:46:20.725Z,12.03
2023-02-15T00:48:48.001Z,12.67
2023-02-15T00:51:15.321Z,12.67
2023-02-15T00:53:42.511Z,12.63
2023-02-15T00:56:09.670Z,12.57
2023-02-15T00:58:36.794Z,12.63
2023-02-15T01:01:06.351Z,13.63
2023-02-15T01:03:33.544Z,13.47
2023-02-15T01:06:01.084Z,12.90
2023-02-15T01:08:28.585Z,13.07
2023-02-15T01:10:56.169Z,13.27
2023-02-15T01:13:23.564Z,12.50
2023-02-15T01:15:55.692Z,12.57
2023-02-15T01:18:23.418Z,12.67
2023-02-15T01:20:50.827Z,13.67
2023-02-15T01:23:18.071Z,13.00
2023-02-15T01:25:45.221Z,12.40
2023-02-15T01:28:12.409Z,13.13
2023-02-15T01:30:39.579Z,13.40
2023-02-15T01:33:06.732Z,13.80
2023-02-15T01:35:34.139Z,13.07
2023-02-15T01:38:01.297Z,13.60
2023-02-15T01:40:28.476Z,12.80
2023-02-15T01:42:56.799Z,13.30
2023-02-15T01:45:31.345Z,13.00
2023-02-15T01:48:03.065Z,13.17
2023-02-15T01:50:33.381Z,13.30
2023-02-15T01:53:03.490Z,13.00
2023-02-15T01:55:35.007Z,13.03
2023-02-15T01:58:02.355Z,13.17
2023-02-15T02:00:30.024Z,13.57
2023-02-15T02:02:58.532Z,12.87
2023-02-15T02:05:25.956Z,13.80
2023-02-15T02:07:53.873Z,13.23
2023-02-15T02:10:24.063Z,12.73
2023-02-15T02:12:52.709Z,12.40
2023-02-15T02:15:19.867Z,12.80
2023-02-15T02:17:49.793Z,13.47
2023-02-15T02:20:17.624Z,12.40
2023-02-15T02:22:57.157Z,12.83
2023-02-15T02:25:24.269Z,13.43
2023-02-15T02:27:56.127Z,13.23
2023-02-15T02:30:42.156Z,12.80
2023-02-15T02:33:28.062Z,12.80
2023-02-15T02:35:56.412Z,13.60
2023-02-15T02:38:23.557Z,12.17
2023-02-15T02:40:56.654Z,12.60
2023-02-15T02:43:29.043Z,12.63
2023-02-15T02:46:02.636Z,13.87
2023-02-15T02:48:32.381Z,14.00
2023-02-15T02:50:59.553Z,12.83
2023-02-15T02:53:27.890Z,13.53
2023-02-15T02:55:59.583Z,13.23
2023-02-15T02:58:45.680Z,13.00
2023-02-15T03:01:18.835Z,13.67
2023-02-15T03:03:48.019Z,13.90
2023-02-15T03:06:20.658Z,14.33
2023-02-15T03:08:53.107Z,13.67
2023-02-15T03:11:20.253Z,14.17
2023-02-15T03:13:49.150Z,13.50
2023-02-15T03:16:28.366Z,14.53
2023-02-15T03:19:08.294Z,15.37
2023-02-15T03:21:42.014Z,14.53
2023-02-15T03:24:11.405Z,14.67
2023-02-15T03:26:39.360Z,15.00
2023-02-15T03:29:07.323Z,14.90
2023-02-15T03:31:36.587Z,15.43
2023-02-15T03:34:09.435Z,15.00
2023-02-15T03:36:45.967Z,14.87
2023-02-15T03:39:21.301Z,14.50
2023-02-15T03:41:51.821Z,14.90
2023-02-15T03:44:26.953Z,14.60
2023-02-15T03:46:58.258Z,16.57
2023-02-15T03:49:31.425Z,16.00
2023-02-15T03:52:00.485Z,15.77
2023-02-15T03:54:44.510Z,15.70
2023-02-15T03:57:40.534Z,14.70
2023-02-15T04:00:46.688Z,14.90
2023-02-15T04:03:16.606Z,16.00
2023-02-15T04:05:44.490Z,15.53
2023-02-15T04:08:11.929Z,16.27
2023-02-15T04:10:54.365Z,17.20
2023-02-15T04:13:22.037Z,15.53
2023-02-15T04:16:05.320Z,16.07
2023-02-15T04:18:56.085Z,16.53
2023-02-15T04:21:43.172Z,16.17
2023-02-15T04:24:29.333Z,15.63
2023-02-15T04:26:56.825Z,15.30
2023-02-15T04:29:24.799Z,16.53
2023-02-15T04:31:52.413Z,17.17
2023-02-15T04:34:19.659Z,16.40
2023-02-15T04:36:46.892Z,16.50
2023-02-15T04:39:14.616Z,16.70
2023-02-15T04:41:41.978Z,16.63
2023-02-15T04:44:09.290Z,16.97
2023-02-15T04:46:36.480Z,16.50
2023-02-15T04:49:03.832Z,16.83
2023-02-15T04:51:31.011Z,16.20
2023-02-15T04:53:58.144Z,17.00
2023-02-15T04:56:25.274Z,17.00
2023-02-15T04:58:52.483Z,17.00
2023-02-15T05:01:19.840Z,17.00
2023-02-15T05:03:46.991Z,18.43
2023-02-15T05:06:14.116Z,16.77
2023-02-15T05:08:41.238Z,17.40
2023-02-15T05:11:08.397Z,15.87
2023-02-15T05:13:35.513Z,17.20
2023-02-15T05:16:03.157Z,17.00
2023-02-15T05:18:30.501Z,17.10
2023-02-15T05:20:57.645Z,18.07
2023-02-15T05:23:24.836Z,17.97
2023-02-15T05:26:11.071Z,17.73
2023-02-15T05:28:42.060Z,16.93
2023-02-15T05:31:16.857Z,15.30
2023-02-15T05:33:44.492Z,17.37
2023-02-15T05:36:12.184Z,17.40
2023-02-15T05:38:39.393Z,17.60
2023-02-15T05:41:10.335Z,16.10
2023-02-15T05:43:37.864Z,17.67
2023-02-15T05:46:05.730Z,16.70
2023-02-15T05:48:33.531Z,15.37
2023-02-15T05:51:00.667Z,16.60
2023-02-15T05:53:28.254Z,16.53
2023-02-15T05:56:00.310Z,16.93
2023-02-15T05:58:28.399Z,16.60
2023-02-15T06:00:55.822Z,16.50
2023-02-15T06:03:23.760Z,16.70
2023-02-15T06:05:51.061Z,16.50
2023-02-15T06:08:18.262Z,16.97
2023-02-15T06:10:47.167Z,15.30
2023-02-15T06:13:14.323Z,16.30
2023-02-15T06:15:41.465Z,17.23
2023-02-15T06:18:08.808Z,15.20
2023-02-15T06:20:35.980Z,16.37
2023-02-15T06:23:03.140Z,16.40
2023-02-15T06:25:30.362Z,16.50
2023-02-15T06:27:57.556Z,16.47
2023-02-15T06:30:24.769Z,16.87
2023-02-15T06:32:52.034Z,15.57
2023-02-15T06:35:19.204Z,16.57
2023-02-15T06:37:49.370Z,17.10
2023-02-15T06:40:16.945Z,15.10
2023-02-15T06:42:44.423Z,16.27
2023-02-15T06:45:12.112Z,16.90
2023-02-15T06:47:39.334Z,16.83
2023-02-15T06:50:07.512Z,15.37
2023-02-15T06:52:34.772Z,15.60
2023-02-15T06:55:02.073Z,16.43
2023-02-15T06:57:29.255Z,16.20
2023-02-15T06:59:56.547Z,15.67
2023-02-15T07:02:23.658Z,16.10
2023-02-15T07:04:50.788Z,15.63
2023-02-15T07:07:18.058Z,16.67
2023-02-15T07:09:45.169Z,15.80
2023-02-15T07:12:30.910Z,16.23
2023-02-15T07:14:59.242Z,16.10
2023-02-15T07:17:36.846Z,15.87
2023-02-15T07:20:09.019Z,16.77
2023-02-15T07:22:37.282Z,16.10
2023-02-15T07:25:08.840Z,15.93
2023-02-15T07:27:36.173Z,16.37
2023-02-15T07:30:03.933Z,17.03
2023-02-15T07:32:31.667Z,16.40
2023-02-15T07:34:59.247Z,16.43
2023-02-15T07:37:26.861Z,16.93
2023-02-15T07:39:54.005Z,15.90
2023-02-15T07:42:22.086Z,15.83
2023-02-15T07:44:49.276Z,16.57
2023-02-15T07:47:16.424Z,16.03
2023-02-15T07:49:43.567Z,15.70
2023-02-15T07:52:10.722Z,16.27
2023-02-15T07:54:37.890Z,15.27
2023-02-15T07:57:05.044Z,14.90
2023-02-15T07:59:32.241Z,16.60
2023-02-15T08:01:59.444Z,16.20
2023-02-15T08:04:26.630Z,16.10
2023-02-15T08:06:55.649Z,16.87
2023-02-15T08:09:23.145Z,16.20
2023-02-15T08:11:50.350Z,17.00
2023-02-15T08:14:21.393Z,16.27
2023-02-15T08:16:50.382Z,16.53
2023-02-15T08:19:17.657Z,17.00
2023-02-15T08:21:54.960Z,17.33
2023-02-15T08:24:23.238Z,16.93
2023-02-15T08:26:50.922Z,16.37
2023-02-15T08:29:19.513Z,17.20
2023-02-15T08:31:47.098Z,16.53
2023-02-15T08:34:16.676Z,17.33
2023-02-15T08:36:45.979Z,16.50
2023-02-15T08:39:13.710Z,16.67
2023-02-15T08:41:43.187Z,17.53
2023-02-15T08:44:11.665Z,16.60
2023-02-15T08:46:39.988Z,15.83
2023-02-15T08:49:07.434Z,17.10
2023-02-15T08:51:35.701Z,15.93
2023-02-15T08:54:04.568Z,16.77
2023-02-15T08:56:34.044Z,15.93
2023-02-15T08:59:01.559Z,17.57
2023-02-15T09:01:29.984Z,15.37
2023-02-15T09:03:58.597Z,16.73
2023-02-15T09:06:26.090Z,16.63
2023-02-15T09:08:53.486Z,16.07
2023-02-15T09:11:25.980Z,15.33
2023-02-15T09:13:53.438Z,16.70
2023-02-15T09:16:20.992Z,15.53
2023-02-15T09:18:48.149Z,16.27
2023-02-15T09:21:16.747Z,16.80
2023-02-15T09:23:45.459Z,17.37
2023-02-15T09:26:16.755Z,16.57
2023-02-15T09:28:44.262Z,17.10
2023-02-15T09:31:12.937Z,15.77
2023-02-15T09:33:41.073Z,15.20
2023-02-15T09:36:15.070Z,16.17
2023-02-15T09:38:42.627Z,15.73
2023-02-15T09:41:12.824Z,16.80
2023-02-15T09:43:39.932Z,15.90
2023-02-15T09:46:14.902Z,15.97
2023-02-15T09:48:43.198Z,16.47
2023-02-15T09:51:25.002Z,16.87
2023-02-15T09:54:05.034Z,16.53
2023-02-15T09:56:39.954Z,16.93
2023-02-15T09:59:24.027Z,16.70
2023-02-15T10:02:09.870Z,17.10
2023-02-15T10:04:55.945Z,16.13
2023-02-15T10:07:37.770Z,16.90
2023-02-15T10:10:27.008Z,17.23
2023-02-15T10:13:08.674Z,17.13
2023-02-15T10:15:59.042Z,17.93
2023-02-15T10:18:46.826Z,17.63
2023-02-15T10:21:40.362Z,17.27
2023-02-15T10:24:15.880Z,17.67
2023-02-15T10:26:43.012Z,18.33
2023-02-15T10:29:28.934Z,17.70
2023-02-15T10:31:56.214Z,16.97
2023-02-15T10:34:42.254Z,18.90
2023-02-15T10:37:19.826Z,18.13
2023-02-15T10:39:49.987Z,18.17
2023-02-15T10:42:22.327Z,17.80
2023-02-15T10:45:08.650Z,17.30
2023-02-15T10:47:36.546Z,17.37
2023-02-15T10:50:17.862Z,16.80
2023-02-15T10:52:47.822Z,17.13
2023-02-15T10:55:20.201Z,16.53
2023-02-15T10:58:06.185Z,16.53
2023-02-15T11:00:40.797Z,16.40
2023-02-15T11:03:28.199Z,15.57
2023-02-15T11:06:01.532Z,16.17
2023-02-15T11:08:31.384Z,16.67
2023-02-15T11:11:07.829Z,16.53
2023-02-15T11:13:39.973Z,15.63
2023-02-15T11:16:24.525Z,15.93
2023-02-15T11:18:54.675Z,15.60
2023-02-15T11:21:39.864Z,15.17
2023-02-15T11:24:12.114Z,15.60
2023-02-15T11:26:56.175Z,15.20
2023-02-15T11:29:28.722Z,14.50
2023-02-15T11:31:57.412Z,14.90
2023-02-15T11:34:24.608Z,15.00
2023-02-15T11:36:53.358Z,14.80
2023-02-15T11:39:21.572Z,15.27
2023-02-15T11:41:52.995Z,15.67
2023-02-15T11:44:28.858Z,15.30
2023-02-15T11:46:55.980Z,15.43
2023-02-15T11:49:33.547Z,15.70
2023-02-15T11:52:02.996Z,16.17
2023-02-15T11:54:33.150Z,16.40
2023-02-15T11:57:04.793Z,16.57
2023-02-15T11:59:34.341Z,16.17
2023-02-15T12:02:01.472Z,16.73
2023-02-15T12:04:31.571Z,16.07
2023-02-15T12:07:18.773Z,17.60
2023-02-15T12:10:08.175Z,17.87
2023-02-15T12:12:36.569Z,16.53
2023-02-15T12:15:05.965Z,17.57
2023-02-15T12:17:35.140Z,17.77
2023-02-15T12:20:08.533Z,18.17
2023-02-15T12:22:37.629Z,17.30
2023-02-15T12:25:23.569Z,17.77
2023-02-15T12:27:51.215Z,18.53
2023-02-15T12:30:21.851Z,18.00
2023-02-15T12:32:51.611Z,18.47
2023-02-15T12:35:38.785Z,18.60
2023-02-15T12:38:05.917Z,18.27
2023-02-15T12:40:35.023Z,19.30
2023-02-15T12:43:09.039Z,18.30
2023-02-15T12:45:37.785Z,18.60
2023-02-15T12:48:10.958Z,18.40
2023-02-15T12:50:38.291Z,16.47
2023-02-15T12:53:23.714Z,18.47
2023-02-15T12:55:52.801Z,17.33
2023-02-15T12:58:20.168Z,18.10
2023-02-15T13:00:47.956Z,17.80
2023-02-15T13:03:24.814Z,17.43
2023-02-15T13:05:56.137Z,18.03
2023-02-15T13:08:30.906Z,16.70
2023-02-15T13:11:00.370Z,17.40
2023-02-15T13:13:29.767Z,16.83
2023-02-15T13:16:01.553Z,17.47
2023-02-15T13:18:31.744Z,16.20
2023-02-15T13:21:01.364Z,16.87
2023-02-15T13:23:30.126Z,18.07
2023-02-15T13:25:59.437Z,17.30
2023-02-15T13:28:28.907Z,17.53
2023-02-15T13:30:56.699Z,17.90
2023-02-15T13:33:38.071Z,17.47
2023-02-15T13:36:22.846Z,17.90
2023-02-15T13:39:09.354Z,16.60
2023-02-15T13:41:47.307Z,17.80
2023-02-15T13:44:34.676Z,17.00
2023-02-15T13:47:18.759Z,17.07
2023-02-15T13:49:45.893Z,17.37
2023-02-15T13:52:21.994Z,17.53
2023-02-15T13:54:55.126Z,14.23
2023-02-15T13:57:44.319Z,16.60
2023-02-15T14:00:14.782Z,17.67
2023-02-15T14:02:45.261Z,17.30
2023-02-15T14:05:31.817Z,16.97
2023-02-15T14:07:58.980Z,16.53
2023-02-15T14:10:33.461Z,17.33
2023-02-15T14:13:20.513Z,16.00
2023-02-15T14:15:57.584Z,16.97
2023-02-15T14:18:43.577Z,17.13
2023-02-15T14:21:19.919Z,16.40
2023-02-15T14:23:50.140Z,15.80
2023-02-15T14:26:20.074Z,16.27
2023-02-15T14:28:53.424Z,15.97
2023-02-15T14:31:23.388Z,15.73
2023-02-15T14:33:58.444Z,14.17
2023-02-15T14:36:27.508Z,14.57
2023-02-15T14:39:33.556Z,14.80
2023-02-15T14:42:16.276Z,16.43
2023-02-15T14:44:57.757Z,14.53
2023-02-15T14:47:28.918Z,15.67
2023-02-15T14:49:56.057Z,15.37
2023-02-15T14:52:23.198Z,15.17
2023-02-15T14:54:50.310Z,15.03
2023-02-15T14:57:17.724Z,16.57
2023-02-15T14:59:44.835Z,15.00
2023-02-15T15:02:15.600Z,14.97
2023-02-15T15:05:01.475Z,15.20
2023-02-15T15:07:30.017Z,14.63
2023-02-15T15:10:02.324Z,14.83
2023-02-15T15:12:36.581Z,14.57
2023-02-15T15:15:04.912Z,14.70
2023-02-15T15:17:37.533Z,13.83
2023-02-15T15:20:08.416Z,14.23
2023-02-15T15:22:36.373Z,14.23
2023-02-15T15:25:11.732Z,15.10
2023-02-15T15:27:45.994Z,14.17
2023-02-15T15:30:16.365Z,13.87
2023-02-15T15:32:52.848Z,14.20
2023-02-15T15:35:39.082Z,13.87
2023-02-15T15:38:13.218Z,12.97
2023-02-15T15:40:52.013Z,13.40
2023-02-15T15:43:37.911Z,13.87
2023-02-15T15:46:15.180Z,13.60
2023-02-15T15:48:43.113Z,14.80
2023-02-15T15:51:19.499Z,15.10
2023-02-15T15:53:49.864Z,13.47
2023-02-15T15:56:19.354Z,14.87
2023-02-15T15:58:50.404Z,14.60
2023-02-15T16:01:17.633Z,14.60
2023-02-15T16:03:52.164Z,14.97
2023-02-15T16:06:39.828Z,15.73
2023-02-15T16:09:13.129Z,15.17
2023-02-15T16:11:43.516Z,15.53
2023-02-15T16:14:13.943Z,16.27
2023-02-15T16:16:41.382Z,14.33
2023-02-15T16:19:18.689Z,15.83
2023-02-15T16:21:45.908Z,15.17
2023-02-15T16:24:23.976Z,15.77
2023-02-15T16:27:16.031Z,15.50
2023-02-15T16:29:43.201Z,15.10
2023-02-15T16:32:26.749Z,16.07
2023-02-15T16:34:58.123Z,15.37
2023-02-15T16:37:28.187Z,16.27
2023-02-15T16:39:56.736Z,17.07
2023-02-15T16:42:24.243Z,16.67
2023-02-15T16:44:53.399Z,17.17
2023-02-15T16:47:26.442Z,17.70
2023-02-15T16:49:55.284Z,18.00
2023-02-15T16:52:24.257Z,19.60
2023-02-15T16:54:53.688Z,19.57
2023-02-15T16:57:22.676Z,19.57
2023-02-15T16:59:51.317Z,16.80
2023-02-15T17:02:43.187Z,16.93
2023-02-15T17:05:14.545Z,17.73
2023-02-15T17:07:42.462Z,17.47
2023-02-15T17:10:28.999Z,17.03
2023-02-15T17:12:56.807Z,17.23
2023-02-15T17:15:31.909Z,17.03
2023-02-15T17:18:00.423Z,16.60
2023-02-15T17:20:27.793Z,16.27
2023-02-15T17:22:55.005Z,17.20
2023-02-15T17:25:25.440Z,16.17
2023-02-15T17:27:54.558Z,17.83
2023-02-15T17:30:28.411Z,17.77
2023-02-15T17:32:57.624Z,20.77
2023-02-15T17:35:26.123Z,18.17
2023-02-15T17:38:02.463Z,19.07
2023-02-15T17:40:36.950Z,17.90
2023-02-15T17:43:04.163Z,17.37
2023-02-15T17:45:36.097Z,18.20
2023-02-15T17:48:04.265Z,18.40
2023-02-15T17:50:31.510Z,19.13
2023-02-15T17:52:59.420Z,17.90
2023-02-15T17:55:35.580Z,17.80
2023-02-15T17:58:03.861Z,17.13
2023-02-15T18:00:50.923Z,17.77
2023-02-15T18:03:37.148Z,18.07
2023-02-15T18:06:22.943Z,17.93
2023-02-15T18:09:10.928Z,17.13
2023-02-15T18:11:40.064Z,17.87
2023-02-15T18:14:08.329Z,18.83
2023-02-15T18:16:36.959Z,16.90
2023-02-15T18:19:05.667Z,17.27
2023-02-15T18:21:34.051Z,18.30
2023-02-15T18:24:01.268Z,18.17
2023-02-15T18:26:29.289Z,18.60
2023-02-15T18:28:56.500Z,18.67
2023-02-15T18:31:24.056Z,18.17
2023-02-15T18:33:55.618Z,19.10
2023-02-15T18:36:32.545Z,19.20
2023-02-15T18:39:04.712Z,17.70
2023-02-15T18:41:34.186Z,18.27
2023-02-15T18:44:01.342Z,17.73
2023-02-15T18:46:28.772Z,17.87
2023-02-15T18:48:55.883Z,17.03
2023-02-15T18:51:23.957Z,17.87
2023-02-15T18:53:53.004Z,18.60
2023-02-15T18:56:21.801Z,16.30
2023-02-15T18:58:49.311Z,17.03
2023-02-15T19:01:17.830Z,17.97
2023-02-15T19:03:48.799Z,17.27
2023-02-15T19:06:17.937Z,17.57
2023-02-15T19:08:46.289Z,18.27
2023-02-15T19:11:15.920Z,17.77
2023-02-15T19:13:43.051Z,17.97
2023-02-15T19:16:14.396Z,17.87
2023-02-15T19:18:41.579Z,18.03
2023-02-15T19:21:12.818Z,17.50
2023-02-15T19:23:39.946Z,16.60
2023-02-15T19:26:07.114Z,18.13
2023-02-15T19:28:35.081Z,18.13
2023-02-15T19:31:02.450Z,16.73
2023-02-15T19:33:29.693Z,17.83
2023-02-15T19:35:57.397Z,16.90
2023-02-15T19:38:31.494Z,15.00
2023-02-15T19:41:02.085Z,18.10
2023-02-15T19:43:30.151Z,16.60
2023-02-15T19:45:57.321Z,17.37
2023-02-15T19:48:27.912Z,17.60
2023-02-15T19:50:57.288Z,17.47
2023-02-15T19:53:38.505Z,13.70
2023-02-15T19:56:12.124Z,15.17
2023-02-15T19:58:39.737Z,16.90
2023-02-15T20:01:07.311Z,17.20
2023-02-15T20:03:38.178Z,18.53
2023-02-15T20:06:05.619Z,15.17
2023-02-15T20:08:32.872Z,19.03
2023-02-15T20:11:00.042Z,19.07
2023-02-15T20:13:28.908Z,19.60
2023-02-15T20:15:56.109Z,17.43
2023-02-15T20:18:23.268Z,17.13
2023-02-15T20:20:55.505Z,20.23
2023-02-15T20:23:22.706Z,19.57
2023-02-15T20:25:50.455Z,17.87
2023-02-15T20:28:22.288Z,17.80
2023-02-15T20:30:49.917Z,19.13
2023-02-15T20:33:17.476Z,16.97
2023-02-15T20:35:45.428Z,18.70
2023-02-15T20:38:19.484Z,18.63
2023-02-15T20:41:05.782Z,18.23
2023-02-15T20:43:33.337Z,22.27
2023-02-15T20:46:00.714Z,16.27
2023-02-15T20:48:28.001Z,20.30
2023-02-15T20:50:55.989Z,17.70
2023-02-15T20:53:23.374Z,18.63
2023-02-15T20:55:50.600Z,19.23
2023-02-15T20:58:28.352Z,18.50
2023-02-15T21:00:56.643Z,18.87
2023-02-15T21:03:26.510Z,19.03
2023-02-15T21:05:53.685Z,19.90
2023-02-15T21:08:22.735Z,18.70
2023-02-15T21:10:51.440Z,17.90
2023-02-15T21:13:18.653Z,18.23
2023-02-15T21:15:45.808Z,18.20
2023-02-15T21:18:38.783Z,18.57
2023-02-15T21:21:06.429Z,16.50
2023-02-15T21:23:38.411Z,18.33
2023-02-15T21:26:05.910Z,16.27
2023-02-15T21:28:33.059Z,18.23
2023-02-15T21:31:00.357Z,15.87
2023-02-15T21:33:28.012Z,22.07
2023-02-15T21:35:56.546Z,21.30
2023-02-15T21:38:25.964Z,18.97
2023-02-15T21:40:53.128Z,17.83
2023-02-15T21:43:43.363Z,19.63
2023-02-15T21:46:33.439Z,18.57
2023-02-15T21:49:01.782Z,18.23
2023-02-15T21:51:48.190Z,18.67
2023-02-15T21:54:15.853Z,17.93
2023-02-15T21:56:43.067Z,17.27
2023-02-15T21:59:13.777Z,20.73
2023-02-15T22:01:46.686Z,17.27
2023-02-15T22:04:34.093Z,19.53
2023-02-15T22:07:01.225Z,18.63
2023-02-15T22:09:28.593Z,18.87
2023-02-15T22:11:55.836Z,17.23
2023-02-15T22:14:39.355Z,20.33
2023-02-15T22:17:14.819Z,17.63
2023-02-15T22:19:42.113Z,19.33
2023-02-15T22:22:09.241Z,17.07
2023-02-15T22:24:36.367Z,21.43
2023-02-15T22:27:03.539Z,21.93
2023-02-15T22:29:30.700Z,24.13
2023-02-15T22:31:57.977Z,19.40
2023-02-15T22:34:26.823Z,22.20
2023-02-15T22:36:54.633Z,23.03
2023-02-15T22:39:22.594Z,22.17
2023-02-15T22:41:49.878Z,21.80
2023-02-15T22:44:20.764Z,21.60
2023-02-15T22:46:47.955Z,24.00
2023-02-15T22:49:15.569Z,23.40
2023-02-15T22:51:43.014Z,22.20
2023-02-15T22:54:10.121Z,24.93
2023-02-15T22:56:41.679Z,19.17
2023-02-15T22:59:15.554Z,22.70
2023-02-15T23:01:42.734Z,23.97
2023-02-15T23:04:21.045Z,25.50
2023-02-15T23:06:48.317Z,21.00
2023-02-15T23:09:15.487Z,24.27
2023-02-15T23:11:42.942Z,24.60
2023-02-15T23:14:24.754Z,23.60
2023-02-15T23:16:51.927Z,24.73
2023-02-15T23:19:19.081Z,25.00
2023-02-15T23:21:46.585Z,25.00
2023-02-15T23:24:19.787Z,26.50
2023-02-15T23:26:47.639Z,25.77
2023-02-15T23:29:24.316Z,25.80
2023-02-15T23:31:54.262Z,26.43
2023-02-15T23:34:26.832Z,28.73
2023-02-15T23:36:54.027Z,28.77
2023-02-15T23:39:41.684Z,28.63
2023-02-15T23:42:11.877Z,27.40
2023-02-15T23:44:39.362Z,30.80
2023-02-15T23:47:07.167Z,29.03
2023-02-15T23:49:34.299Z,33.53
2023-02-15T23:52:01.716Z,30.23
2023-02-15T23:54:28.857Z,30.10
2023-02-15T23:56:58.182Z,29.07
2023-02-15T23:59:27.198Z,37.73
